• Join FlightAware (Why Join?)
  • Login
  • US Flag 
05:46AM EDT


 

Airport Tracker/Info


-or-


 

Live Flight TrackerFlight Track Log ✈ SUB1590 ✈ 23-Apr-2013 ✈ KCVG - KOMA

Flight Track Log - Related Links

Times and Time Zones

All times are in EDT time to prevent confusion due to time zone crossing. See the SUB1590 flight status page for this flight to view local times or setup timezone preferences in your user account.

Time Position Orientation Groundspeed Altitude Reporting Facility
EDT Latitude Longitude Course Direction KTS MPH feet Rate Location/Type
06:12AM 39.0500 -84.6667 360° North 116 133 1,300  Level Cincinnati TRACON
06:13AM 39.1000 -84.6667 360° North 150 173 2,800 1,380 Climbing Cincinnati TRACON
06:14AM 39.1167 -84.7167 293° West 123 142 4,300 1,440 Climbing Cincinnati TRACON
06:15AM 39.1333 -84.7500 303° West 127 146 5,700 1,380 Climbing Cincinnati TRACON
06:16AM 39.1333 -84.8000 270° West 130 150 7,100 1,140 Climbing Cincinnati TRACON
06:17AM 39.1500 -84.8500 293° West 132 152 8,000 480 Climbing Cincinnati TRACON
06:18AM 39.1667 -84.9000 293° West 198 228 8,100  Climbing Cincinnati TRACON
06:19AM 39.1833 -84.9667 288° West 199 229 8,100  Level Cincinnati TRACON
06:20AM 39.1833 -85.0500 270° West 202 232 8,100  Level Cincinnati TRACON
06:21AM 39.2000 -85.1167 288° West 199 229 8,100 -60 Level Cincinnati TRACON
06:22AM 39.2167 -85.1833 288° West 200 230 8,000  Descending Cincinnati TRACON
06:23AM 39.2500 -85.2333 311° West 198 228 8,100  Climbing Cincinnati TRACON
06:25AM 39.2631 -85.3242 281° West 194 223 8,100  Level Indianapolis Center
06:26AM 39.2767 -85.3797 288° West 192 221 8,100  Level Indianapolis Center
06:27AM 39.2947 -85.4469 289° West 193 222 8,100  Level Indianapolis Center
06:28AM 39.3142 -85.5272 287° West 195 224 8,100  Level Indianapolis Center
06:29AM 39.3314 -85.5942 288° West 195 224 8,100  Level Indianapolis Center
06:30AM 39.3489 -85.6614 289° West 196 226 8,200 -60 Climbing Indianapolis Center
06:31AM 39.3661 -85.7292 288° West 197 227 8,000 -60 Descending Indianapolis Center
06:32AM 39.3806 -85.7961 286° West 196 226 8,100  Climbing Indianapolis Center
06:33AM 39.3958 -85.8633 286° West 195 224 8,100  Level Indianapolis Center
06:34AM 39.4131 -85.9303 288° West 195 224 8,100  Level Indianapolis Center
06:35AM 39.4314 -85.9978 289° West 195 224 8,100 -60 Level Indianapolis Center
06:36AM 39.4483 -86.0664 288° West 197 227 8,000 -60 Descending Indianapolis Center
06:37AM 39.4647 -86.1347 287° West 199 229 8,000  Level Indianapolis Center
06:38AM 39.4819 -86.2022 288° West 198 228 8,100  Climbing Indianapolis Center
06:39AM 39.4964 -86.2692 286° West 197 227 8,000 -60 Descending Indianapolis Center
06:40AM 39.5097 -86.3386 284° West 196 226 8,000  Level Indianapolis Center
06:41AM 39.5250 -86.4072 286° West 196 226 8,000  Level Indianapolis Center
06:42AM 39.5403 -86.4742 287° West 196 226 8,100  Climbing Indianapolis Center
06:43AM 39.5553 -86.5419 286° West 196 226 8,000 -60 Descending Indianapolis Center
06:44AM 39.5722 -86.6083 288° West 195 224 8,000  Level Indianapolis Center
06:45AM 39.5864 -86.6756 285° West 194 223 8,100  Climbing Indianapolis Center
06:46AM 39.5994 -86.7431 284° West 194 223 8,100  Level Indianapolis Center
06:47AM 39.6189 -86.8108 290° West 196 226 8,200  Climbing Indianapolis Center
06:48AM 39.6358 -86.8811 287° West 199 229 8,100 -60 Descending Indianapolis Center
06:49AM 39.6531 -86.9494 288° West 199 229 8,100  Level Indianapolis Center
06:50AM 39.6703 -87.0183 288° West 200 230 8,200  Climbing Indianapolis Center
06:51AM 39.6872 -87.0861 288° West 199 229 8,100 -60 Descending Indianapolis Center
06:52AM 39.7019 -87.1561 285° West 199 229 8,100 -60 Level Indianapolis Center
06:53AM 39.7172 -87.2267 286° West 200 230 8,000  Descending Indianapolis Center
06:54AM 39.7308 -87.2961 284° West 200 230 8,100  Climbing Indianapolis Center
06:55AM 39.7442 -87.3644 284° West 198 228 8,100  Level Indianapolis Center
06:56AM 39.7622 -87.4453 286° West 196 226 8,100 -60 Level Indianapolis Center
06:57AM 39.7767 -87.5150 285° West 197 227 8,000  Descending Indianapolis Center
06:58AM 39.7908 -87.5842 285° West 197 227 8,100  Climbing Indianapolis Center
06:59AM 39.8086 -87.6553 288° West 201 231 8,100  Level Indianapolis Center
07:00AM 39.8256 -87.7233 288° West 201 231 8,100  Level Indianapolis Center
07:01AM 39.8389 -87.7931 284° West 199 229 8,100  Level Indianapolis Center
07:02AM 39.8547 -87.8608 287° West 198 228 8,100  Level Indianapolis Center
07:03AM 39.8711 -87.9283 288° West 197 227 8,100  Level Indianapolis Center
07:04AM 39.8883 -87.9983 288° West 198 228 8,100  Level Indianapolis Center
07:05AM 39.9033 -88.0744 284° West 198 228 8,200  Climbing Kansas City Center
07:06AM 39.9167 -88.1433 284° West 196 226 8,200  Level Kansas City Center
07:07AM 39.9306 -88.2117 285° West 196 226 8,200  Level Kansas City Center
07:08AM 39.9464 -88.2819 286° West 198 228 8,200  Level Kansas City Center
07:09AM 39.9606 -88.3481 286° West 193 222 8,200 180 Level Chicago Center
07:10AM 39.9733 -88.4167 284° West 194 223 8,600 780 Climbing Chicago Center
07:11AM 39.9858 -88.4725 286° West 168 193 9,900 780 Climbing Chicago Center
07:12AM 39.9986 -88.5222 289° West 162 186 10,200 120 Climbing Kansas City Center
07:13AM 40.0122 -88.5919 284° West 186 214 10,200  Level Kansas City Center
07:14AM 40.0256 -88.6606 284° West 194 223 10,200 -60 Level Kansas City Center
07:15AM 40.0392 -88.7300 284° West 198 228 10,100  Descending Kansas City Center
07:16AM 40.0536 -88.7986 285° West 196 226 10,200  Climbing Kansas City Center
07:17AM 40.0697 -88.8675 287° West 198 228 10,200 -120 Level Kansas City Center
07:18AM 40.0867 -88.9350 288° West 197 227 10,000 -60 Descending Kansas City Center
07:19AM 40.1017 -89.0047 286° West 198 228 10,100  Climbing Kansas City Center
07:20AM 40.1169 -89.0736 286° West 198 228 10,100  Level Kansas City Center
07:21AM 40.1294 -89.1433 283° West 197 227 10,100  Level Kansas City Center
07:22AM 40.1425 -89.2139 284° West 198 228 10,100  Level Kansas City Center
07:23AM 40.1603 -89.2811 289° West 197 227 10,100  Level Kansas City Center
07:24AM 40.1761 -89.3500 287° West 198 228 10,100  Level Kansas City Center
07:25AM 40.1911 -89.4183 286° West 196 226 10,100  Level Kansas City Center
07:27AM 40.2067 -89.5011 284° West 197 227 10,100 -60 Level Chicago Center
07:28AM 40.2208 -89.5719 285° West 199 229 10,000  Descending Chicago Center
07:29AM 40.2342 -89.6417 284° West 199 229 10,100  Climbing Chicago Center
07:30AM 40.2519 -89.7242 286° West 196 226 10,000  Descending Chicago Center
07:31AM 40.2656 -89.7936 284° West 197 227 10,100  Climbing Chicago Center
07:32AM 40.2781 -89.8631 283° West 196 226 10,100  Level Chicago Center
07:32AM 40.2867 -89.9050 285° West 197 227 10,100 60 Level Chicago Center
07:33AM 40.2997 -89.9736 284° West 194 223 10,200  Climbing Chicago Center
07:34AM 40.3131 -90.0408 285° West 191 220 10,200  Level Chicago Center
07:35AM 40.3258 -90.1097 284° West 194 223 10,200 -60 Level Chicago Center
07:36AM 40.3394 -90.1781 285° West 194 223 10,100 -60 Descending Chicago Center
07:37AM 40.3519 -90.2478 283° West 196 226 10,100  Level Chicago Center
07:38AM 40.3564 -90.2758 282° West 196 226 10,100 60 Level Chicago Center
07:39AM 40.3689 -90.3442 284° West 194 223 10,200  Climbing Chicago Center
07:40AM 40.3881 -90.4256 287° West 194 223 10,200 -60 Level Chicago Center
07:41AM 40.4022 -90.4956 285° West 198 228 10,100 -60 Descending Chicago Center
07:42AM 40.4122 -90.5653 281° West 196 226 10,100 -60 Level Chicago Center
07:43AM 40.4267 -90.6353 285° West 197 227 10,000  Descending Chicago Center
07:44AM 40.4433 -90.7036 288° West 197 227 10,100  Climbing Chicago Center
07:45AM 40.4578 -90.7733 285° West 197 227 10,100  Level Chicago Center
07:46AM 40.4694 -90.8417 283° West 194 223 10,200  Climbing Chicago Center
07:47AM 40.4819 -90.9131 283° West 198 228 10,200  Level Chicago Center
07:48AM 40.4914 -90.9822 280° West 194 223 10,200 -60 Level Chicago Center
07:49AM 40.5081 -91.0689 284° West 200 230 10,100 -60 Descending Chicago Center
07:50AM 40.5194 -91.1400 282° West 200 230 10,100  Level Chicago Center
07:51AM 40.5322 -91.2114 283° West 199 229 10,100  Level Chicago Center
07:52AM 40.5450 -91.2825 283° West 200 230 10,200  Climbing Chicago Center
07:53AM 40.5608 -91.3531 286° West 201 231 10,200  Level Chicago Center
07:54AM 40.5733 -91.4239 283° West 202 232 10,300 -60 Climbing Chicago Center
07:55AM 40.5908 -91.4944 288° West 202 232 10,100 -120 Descending Chicago Center
07:56AM 40.6039 -91.5667 283° West 204 235 10,100  Level Chicago Center
07:57AM 40.6178 -91.6514 282° West 199 229 10,100 -180 Level Chicago Center
07:58AM 40.6214 -91.6786 280° West 198 228 9,900  Descending Kansas City Center
07:58AM 40.6292 -91.7208 284° West 199 229 10,100 120 Climbing Chicago Center
07:59AM 40.6422 -91.7908 284° West 199 229 10,100 -60 Level Chicago Center
08:00AM 40.6550 -91.8594 284° West 197 227 10,000  Descending Chicago Center
08:01AM 40.6681 -91.9278 284° West 195 224 10,100  Climbing Chicago Center
08:03AM 40.6792 -91.9956 282° West 192 221 10,100 -60 Level Chicago Center
08:04AM 40.6944 -92.0772 284° West 193 222 10,000  Descending Chicago Center
08:05AM 40.7061 -92.1436 283° West 189 217 10,100  Climbing Chicago Center
08:06AM 40.7197 -92.2106 285° West 190 219 10,000 -120 Descending Chicago Center
08:07AM 40.7311 -92.2792 282° West 192 221 9,900  Descending Chicago Center
08:08AM 40.7425 -92.3469 283° West 192 221 10,000 60 Climbing Chicago Center
08:09AM 40.7536 -92.4286 280° West 192 221 10,100  Climbing Chicago Center
08:10AM 40.7658 -92.4961 283° West 191 220 10,100  Level Chicago Center
08:11AM 40.7789 -92.5653 284° West 197 227 10,100  Level Chicago Center
08:12AM 40.7911 -92.6339 283° West 196 226 10,100  Level Chicago Center
08:13AM 40.8053 -92.7036 285° West 197 227 10,100  Level Chicago Center
08:14AM 40.8189 -92.7747 284° West 199 229 10,100  Level Chicago Center
08:15AM 40.8356 -92.8592 285° West 200 230 10,100  Level Chicago Center
08:16AM 40.8475 -92.9169 285° West 201 231 10,200  Climbing Minneapolis Center
08:17AM 40.8608 -92.9872 284° West 201 231 10,200 -60 Level Minneapolis Center
08:18AM 40.8775 -93.0733 284° West 202 232 10,100 -60 Descending Minneapolis Center
08:19AM 40.8889 -93.1439 282° West 198 228 10,100  Level Minneapolis Center
08:20AM 40.8983 -93.2175 280° West 202 232 10,100 -60 Level Minneapolis Center
08:21AM 40.9089 -93.2958 280° West 201 231 10,000 -60 Descending Minneapolis Center
08:22AM 40.9172 -93.3708 278° West 204 235 10,000  Level Minneapolis Center
08:23AM 40.9294 -93.4444 282° West 206 237 10,000  Level Minneapolis Center
08:24AM 40.9433 -93.5231 283° West 205 236 10,100  Climbing Minneapolis Center
08:25AM 40.9569 -93.5964 284° West 206 237 10,000  Descending Minneapolis Center
08:26AM 40.9683 -93.6706 282° West 206 237 10,100  Climbing Minneapolis Center
08:27AM 40.9858 -93.7122 299° West 205 236 10,000  Descending Minneapolis Center
08:27AM 40.9819 -93.7433 261° West 204 235 10,100 60 Climbing Minneapolis Center
08:28AM 40.9928 -93.8225 280° West 203 234 10,100  Level Minneapolis Center
08:29AM 41.0075 -93.8939 285° West 202 232 10,100 -60 Level Minneapolis Center
08:30AM 41.0194 -93.9667 282° West 202 232 10,000  Descending Minneapolis Center
08:31AM 41.0306 -94.0442 281° West 200 230 10,100  Climbing Minneapolis Center
08:32AM 41.0414 -94.1167 281° West 201 231 10,000 -60 Descending Minneapolis Center
08:33AM 41.0511 -94.1856 281° West 194 223 10,000  Level Minneapolis Center
08:34AM 41.0583 -94.2636 277° West 199 229 10,000  Level Minneapolis Center
08:35AM 41.0681 -94.3339 280° West 197 227 10,000  Level Minneapolis Center
08:36AM 41.0797 -94.4044 282° West 196 226 10,100  Climbing Minneapolis Center
08:37AM 41.0903 -94.4817 280° West 197 227 10,000 -60 Descending Minneapolis Center
08:38AM 41.1000 -94.5525 280° West 195 224 10,000  Level Minneapolis Center
08:39AM 41.1136 -94.6197 285° West 200 230 10,100  Climbing Minneapolis Center
08:40AM 41.1250 -94.6900 282° West 197 227 10,100  Level Minneapolis Center
08:41AM 41.1367 -94.7600 283° West 195 224 10,100  Level Minneapolis Center
08:42AM 41.1447 -94.8319 278° West 196 226 10,200 60 Climbing Minneapolis Center
08:43AM 41.1619 -94.8683 302° West 196 226 10,200 -240 Level Minneapolis Center
08:43AM 41.1536 -94.9025 252° West 195 224 10,000 -600 Descending Minneapolis Center
08:44AM 41.1675 -94.9425 295° West 200 230 9,600 -1,080 Descending Minneapolis Center
08:44AM 41.1614 -94.9956 261° West 203 234 8,900 -900 Descending Minneapolis Center
08:45AM 41.1736 -95.0222 301° West 221 254 8,700 -720 Descending Minneapolis Center
08:45AM 41.1678 -95.0744 262° West 210 242 8,200 -720 Descending Minneapolis Center
08:47AM 41.1739 -95.1533 276° West 213 245 7,500 -720 Descending Minneapolis Center
08:48AM 41.1756 -95.2175 272° West 214 246 6,800 -1,020 Descending Minneapolis Center
08:49AM 41.1797 -95.3208 273° West 223 257 5,500 -1,020 Descending Minneapolis Center
08:50AM 41.1875 -95.4058 277° West 230 265 4,800 -780 Descending Minneapolis Center
08:51AM 41.2014 -95.5008 281° West 219 252 4,000 -660 Descending Minneapolis Center
08:51AM 41.1972 -95.5019 191° South 225 259 4,000 -720 Level Minneapolis Center
08:52AM 41.2131 -95.5769 286° West 216 249 3,300 -720 Descending Minneapolis Center
08:52AM 41.2122 -95.5950 266° West 219 252 3,300  Level Minneapolis Center
08:53AM 41.2225 -95.6536 283° West 207 238 3,300  Level Minneapolis Center
08:53AM 41.2225 -95.6694 270° West 214 246 3,300  Level Minneapolis Center
08:54AM 41.2292 -95.7219 280° West 188 216 3,300  Level Minneapolis Center
08:54AM 41.2297 -95.7378 273° West 201 231 3,300 -120 Level Minneapolis Center
08:55AM 41.2356 -95.7850 279° West 172 198 3,200 -240 Descending Minneapolis Center
08:55AM 41.2378 -95.8003 281° West 187 215 3,100 -540 Descending Minneapolis Center
08:56AM 41.2456 -95.8394 285° West 125 144 2,700 -540 Descending Minneapolis Center
08:56AM 41.2492 -95.8433 321° Northwest 152 175 2,600 -840 Descending Minneapolis Center
08:57AM 41.2706 -95.8697 317° Northwest 109 125 1,800 -900 Descending Minneapolis Center
08:57AM 41.2744 -95.8692 North 127 146 1,700 -420 Descending Minneapolis Center
08:58AM 41.3031 -95.8967 324° Northwest 121 139 1,200 -420 Descending Minneapolis Center